createdAt,value
2023-05-06T00:01:08.924Z,89.03
2023-05-06T00:03:36.645Z,88.76
2023-05-06T00:06:07.094Z,90.52
2023-05-06T00:08:34.647Z,90.90
2023-05-06T00:11:02.167Z,91.37
2023-05-06T00:13:29.746Z,91.80
2023-05-06T00:15:57.254Z,91.58
2023-05-06T00:18:24.718Z,91.64
2023-05-06T00:20:52.248Z,91.39
2023-05-06T00:23:21.122Z,91.61
2023-05-06T00:25:48.600Z,91.44
2023-05-06T00:28:16.086Z,92.13
2023-05-06T00:30:43.828Z,92.27
2023-05-06T00:33:11.369Z,92.13
2023-05-06T00:35:40.090Z,91.35
2023-05-06T00:38:09.702Z,91.67
2023-05-06T00:40:38.568Z,91.78
2023-05-06T00:43:06.520Z,91.71
2023-05-06T00:45:34.335Z,91.69
2023-05-06T00:48:02.249Z,92.22
2023-05-06T00:50:31.236Z,92.68
2023-05-06T00:52:59.855Z,92.73
2023-05-06T00:55:27.562Z,93.16
2023-05-06T00:57:56.645Z,93.54
2023-05-06T01:00:24.303Z,93.25
2023-05-06T01:02:52.767Z,93.21
2023-05-06T01:05:22.499Z,93.51
2023-05-06T01:07:53.744Z,93.01
2023-05-06T01:10:28.973Z,93.03
2023-05-06T01:13:02.712Z,92.03
2023-05-06T01:15:34.410Z,92.48
2023-05-06T01:18:05.980Z,92.29
2023-05-06T01:20:34.209Z,91.96
2023-05-06T01:23:02.910Z,92.13
2023-05-06T01:25:33.689Z,92.12
2023-05-06T01:28:01.241Z,92.15
2023-05-06T01:30:33.311Z,92.41
2023-05-06T01:33:05.343Z,92.82
2023-05-06T01:35:36.845Z,92.33
2023-05-06T01:38:08.624Z,92.13
2023-05-06T01:40:37.959Z,92.86
2023-05-06T01:43:06.393Z,92.30
2023-05-06T01:45:35.628Z,92.55
2023-05-06T01:48:05.473Z,92.42
2023-05-06T01:50:33.806Z,92.60
2023-05-06T01:53:03.008Z,93.02
2023-05-06T01:55:30.821Z,92.89
2023-05-06T01:58:00.647Z,92.70
2023-05-06T02:00:28.248Z,92.68
2023-05-06T02:02:55.807Z,92.58
2023-05-06T02:05:23.744Z,92.51
2023-05-06T02:07:55.461Z,92.49
2023-05-06T02:10:23.223Z,93.05
2023-05-06T02:12:58.068Z,94.01
2023-05-06T02:15:27.529Z,93.50
2023-05-06T02:17:57.090Z,93.48
2023-05-06T02:20:24.923Z,93.47
2023-05-06T02:22:52.435Z,93.25
2023-05-06T02:25:20.156Z,93.65
2023-05-06T02:27:47.616Z,93.67
2023-05-06T02:30:15.609Z,93.61
2023-05-06T02:32:44.459Z,93.46
2023-05-06T02:35:12.154Z,94.05
2023-05-06T02:37:39.672Z,93.63
2023-05-06T02:40:08.924Z,93.67
2023-05-06T02:42:36.470Z,93.36
2023-05-06T02:45:04.785Z,93.42
2023-05-06T02:47:33.198Z,93.23
2023-05-06T02:50:02.123Z,92.87
2023-05-06T02:52:29.605Z,92.43
2023-05-06T02:54:57.303Z,92.31
2023-05-06T02:57:24.835Z,93.07
2023-05-06T02:59:52.349Z,92.90
2023-05-06T03:02:19.820Z,93.29
2023-05-06T03:04:47.491Z,93.38
2023-05-06T03:07:16.323Z,93.31
2023-05-06T03:09:44.592Z,92.82
2023-05-06T03:12:12.725Z,92.26
2023-05-06T03:14:40.651Z,92.79
2023-05-06T03:17:08.177Z,92.65
2023-05-06T03:19:37.579Z,92.52
2023-05-06T03:22:07.157Z,92.73
2023-05-06T03:24:38.567Z,92.42
2023-05-06T03:27:07.419Z,92.52
2023-05-06T03:29:35.058Z,92.43
2023-05-06T03:32:04.518Z,92.33
2023-05-06T03:34:36.468Z,92.23
2023-05-06T03:37:04.525Z,92.41
2023-05-06T03:39:32.192Z,92.62
2023-05-06T03:42:02.965Z,91.91
2023-05-06T03:44:30.790Z,92.12
2023-05-06T03:46:59.530Z,92.25
2023-05-06T03:49:28.603Z,92.25
2023-05-06T03:51:56.362Z,91.97
2023-05-06T03:54:25.994Z,92.26
2023-05-06T03:56:54.232Z,92.37
2023-05-06T03:59:23.440Z,91.27
2023-05-06T04:01:51.761Z,91.42
2023-05-06T04:04:19.826Z,91.34
2023-05-06T04:06:47.314Z,91.19
2023-05-06T04:09:14.849Z,91.20
2023-05-06T04:11:42.531Z,91.70
2023-05-06T04:14:13.225Z,90.96
2023-05-06T04:16:42.091Z,91.26
2023-05-06T04:19:09.716Z,91.09
2023-05-06T04:21:37.676Z,91.25
2023-05-06T04:24:09.462Z,91.11
2023-05-06T04:26:39.781Z,91.04
2023-05-06T04:29:08.765Z,91.15
2023-05-06T04:31:44.075Z,90.90
2023-05-06T04:34:13.698Z,90.50
2023-05-06T04:36:41.881Z,90.29
2023-05-06T04:39:18.123Z,89.93
2023-05-06T04:41:46.298Z,90.33
2023-05-06T04:44:19.432Z,90.18
2023-05-06T04:46:49.100Z,91.05
2023-05-06T04:49:17.283Z,91.57
2023-05-06T04:51:45.547Z,91.53
2023-05-06T04:54:13.566Z,90.88
2023-05-06T04:56:41.661Z,90.25
2023-05-06T04:59:11.685Z,89.95
2023-05-06T05:01:41.009Z,90.16
2023-05-06T05:04:11.226Z,90.81
2023-05-06T05:06:38.739Z,90.74
2023-05-06T05:09:06.341Z,91.05
2023-05-06T05:11:34.798Z,90.81
2023-05-06T05:14:02.530Z,90.39
2023-05-06T05:16:31.299Z,89.81
2023-05-06T05:19:01.477Z,89.94
2023-05-06T05:21:32.865Z,90.30
2023-05-06T05:24:00.914Z,89.54
2023-05-06T05:26:28.490Z,89.02
2023-05-06T05:28:58.535Z,89.11
2023-05-06T05:31:26.101Z,88.65
2023-05-06T05:33:53.791Z,88.47
2023-05-06T05:36:23.633Z,88.47
2023-05-06T05:38:56.201Z,88.61
2023-05-06T05:41:26.934Z,88.08
2023-05-06T05:43:56.177Z,88.27
2023-05-06T05:46:24.537Z,88.21
2023-05-06T05:48:52.737Z,87.67
2023-05-06T05:51:22.781Z,87.48
2023-05-06T05:53:52.242Z,86.52
2023-05-06T05:56:23.007Z,86.21
2023-05-06T05:58:50.495Z,86.52
2023-05-06T06:01:18.475Z,86.42
2023-05-06T06:03:48.093Z,86.55
2023-05-06T06:06:15.756Z,84.43
2023-05-06T06:08:43.883Z,84.96
2023-05-06T06:11:12.997Z,83.61
2023-05-06T06:13:43.527Z,82.90
2023-05-06T06:16:11.783Z,82.33
2023-05-06T06:18:39.337Z,80.82
2023-05-06T06:21:06.953Z,82.16
2023-05-06T06:23:35.734Z,82.35
2023-05-06T06:26:03.800Z,80.98
2023-05-06T06:28:33.508Z,80.92
2023-05-06T06:31:02.873Z,81.23
2023-05-06T06:33:30.396Z,79.38
2023-05-06T06:35:58.274Z,79.32
2023-05-06T06:38:25.827Z,78.70
2023-05-06T06:40:53.404Z,79.43
2023-05-06T06:43:20.911Z,79.36
2023-05-06T06:46:04.027Z,77.40
2023-05-06T06:48:31.690Z,77.76
2023-05-06T06:50:59.204Z,77.05
2023-05-06T06:53:26.701Z,77.06
2023-05-06T06:55:54.191Z,78.06
2023-05-06T06:58:21.698Z,77.78
2023-05-06T07:00:49.263Z,78.53
2023-05-06T07:03:19.557Z,78.13
2023-05-06T07:05:47.310Z,78.45
2023-05-06T07:08:15.587Z,79.05
2023-05-06T07:10:43.041Z,79.33
2023-05-06T07:13:10.549Z,78.72
2023-05-06T07:15:38.067Z,77.73
2023-05-06T07:18:05.913Z,77.17
2023-05-06T07:20:34.886Z,76.97
2023-05-06T07:23:02.365Z,75.99
2023-05-06T07:25:31.277Z,77.17
2023-05-06T07:27:59.004Z,76.38
2023-05-06T07:30:26.576Z,75.55
2023-05-06T07:32:54.291Z,75.01
2023-05-06T07:35:21.788Z,74.98
2023-05-06T07:37:50.663Z,75.37
2023-05-06T07:40:18.179Z,75.88
2023-05-06T07:42:45.654Z,75.85
2023-05-06T07:45:13.262Z,75.00
2023-05-06T07:47:40.868Z,74.21
2023-05-06T07:50:10.543Z,74.70
2023-05-06T07:52:38.077Z,75.09
2023-05-06T07:55:10.080Z,74.18
2023-05-06T07:57:37.920Z,75.57
2023-05-06T08:00:06.997Z,74.09
2023-05-06T08:02:44.359Z,74.34
2023-05-06T08:05:12.411Z,74.53
2023-05-06T08:07:40.988Z,74.11
2023-05-06T08:10:11.149Z,74.18
2023-05-06T08:12:38.723Z,74.34
2023-05-06T08:15:07.269Z,73.75
2023-05-06T08:17:34.806Z,73.35
2023-05-06T08:20:02.364Z,72.55
2023-05-06T08:22:29.862Z,71.57
2023-05-06T08:24:57.476Z,70.39
2023-05-06T08:27:26.621Z,69.53
2023-05-06T08:29:54.443Z,68.01
2023-05-06T08:32:21.972Z,69.36
2023-05-06T08:34:49.460Z,68.69
2023-05-06T08:37:17.006Z,68.77
2023-05-06T08:39:45.553Z,68.17
2023-05-06T08:42:13.115Z,66.33
2023-05-06T08:44:43.869Z,65.78
2023-05-06T08:47:11.357Z,64.91
2023-05-06T08:49:38.946Z,64.78
2023-05-06T08:52:07.024Z,65.23
2023-05-06T08:54:35.352Z,65.77
2023-05-06T08:57:05.035Z,65.42
2023-05-06T08:59:33.796Z,65.01
2023-05-06T09:02:03.411Z,64.86
2023-05-06T09:04:31.106Z,64.77
2023-05-06T09:06:59.554Z,64.53
2023-05-06T09:09:27.308Z,63.56
2023-05-06T09:11:57.325Z,63.03
2023-05-06T09:14:25.138Z,61.46
2023-05-06T09:16:53.731Z,61.50
2023-05-06T09:19:23.408Z,62.04
2023-05-06T09:21:52.484Z,63.31
2023-05-06T09:24:20.420Z,62.05
2023-05-06T09:26:48.285Z,61.42
2023-05-06T09:29:16.062Z,61.78
2023-05-06T09:31:44.823Z,61.34
2023-05-06T09:34:13.032Z,61.07
2023-05-06T09:36:42.019Z,61.38
2023-05-06T09:39:10.081Z,60.80
2023-05-06T09:41:37.805Z,61.22
2023-05-06T09:44:06.097Z,61.31
2023-05-06T09:46:33.902Z,61.06
2023-05-06T09:49:01.608Z,60.45
2023-05-06T09:51:29.318Z,61.56
2023-05-06T09:53:59.104Z,61.63
2023-05-06T09:56:26.949Z,61.99
2023-05-06T09:58:55.500Z,60.92
2023-05-06T10:01:35.367Z,61.87
2023-05-06T10:04:06.945Z,62.30
2023-05-06T10:06:39.344Z,60.94
2023-05-06T10:09:08.122Z,60.42
2023-05-06T10:11:36.456Z,58.50
2023-05-06T10:14:04.980Z,56.38
2023-05-06T10:16:35.752Z,56.59
2023-05-06T10:19:04.809Z,56.04
2023-05-06T10:21:39.286Z,54.29
2023-05-06T10:24:11.981Z,54.85
2023-05-06T10:26:40.040Z,54.86
2023-05-06T10:29:10.388Z,54.35
2023-05-06T10:31:41.891Z,54.26
2023-05-06T10:34:10.926Z,52.16
2023-05-06T10:36:38.977Z,51.67
2023-05-06T10:39:10.653Z,52.27
2023-05-06T10:41:38.442Z,52.49
2023-05-06T10:44:07.037Z,52.02
2023-05-06T10:46:58.485Z,51.23
2023-05-06T10:49:26.125Z,50.45
2023-05-06T10:52:11.999Z,50.42
2023-05-06T10:54:51.440Z,49.39
2023-05-06T10:57:20.734Z,48.21
2023-05-06T10:59:49.485Z,46.91
2023-05-06T11:02:20.183Z,46.75
2023-05-06T11:04:51.857Z,47.98
2023-05-06T11:07:24.181Z,47.77
2023-05-06T11:09:58.248Z,47.56
2023-05-06T11:12:46.050Z,47.65
2023-05-06T11:15:21.575Z,46.41
2023-05-06T11:17:49.320Z,44.77
2023-05-06T11:20:21.130Z,45.05
2023-05-06T11:22:48.668Z,44.75
2023-05-06T11:25:40.353Z,43.67
2023-05-06T11:28:09.220Z,43.65
2023-05-06T11:30:37.749Z,44.53
2023-05-06T11:33:05.933Z,45.07
2023-05-06T11:35:36.975Z,44.99
2023-05-06T11:38:05.084Z,43.79
2023-05-06T11:40:34.188Z,44.08
2023-05-06T11:43:11.768Z,43.62
2023-05-06T11:45:43.709Z,44.35
2023-05-06T11:48:13.012Z,43.09
2023-05-06T11:50:45.262Z,42.49
2023-05-06T11:53:15.084Z,43.52
2023-05-06T11:55:44.726Z,42.72
2023-05-06T11:58:16.427Z,42.63
2023-05-06T12:00:51.373Z,42.44
2023-05-06T12:03:19.909Z,42.10
2023-05-06T12:05:48.679Z,42.10
2023-05-06T12:08:26.560Z,43.21
2023-05-06T12:11:00.779Z,43.25
2023-05-06T12:13:28.872Z,42.57
2023-05-06T12:15:56.787Z,41.84
2023-05-06T12:18:24.837Z,42.50
2023-05-06T12:20:54.646Z,42.72
2023-05-06T12:23:22.680Z,43.27
2023-05-06T12:26:03.816Z,42.66
2023-05-06T12:28:32.455Z,42.73
2023-05-06T12:30:59.992Z,43.63
2023-05-06T12:33:27.481Z,42.56
2023-05-06T12:35:58.257Z,41.88
2023-05-06T12:38:25.974Z,41.85
2023-05-06T12:40:54.682Z,42.04
2023-05-06T12:43:30.926Z,41.15
2023-05-06T12:46:06.500Z,40.44
2023-05-06T12:48:34.407Z,39.65
2023-05-06T12:51:02.202Z,38.99
2023-05-06T12:53:33.992Z,38.76
2023-05-06T12:56:01.608Z,39.04
2023-05-06T12:58:30.819Z,39.40
2023-05-06T13:00:58.377Z,39.83
2023-05-06T13:03:26.166Z,39.49
2023-05-06T13:05:53.811Z,39.27
2023-05-06T13:08:21.396Z,39.60
2023-05-06T13:10:48.873Z,38.45
2023-05-06T13:13:16.507Z,37.23
2023-05-06T13:15:45.444Z,38.25
2023-05-06T13:18:12.920Z,36.93
2023-05-06T13:20:40.705Z,37.80
2023-05-06T13:23:08.208Z,37.47
2023-05-06T13:25:44.628Z,38.49
2023-05-06T13:28:19.696Z,38.24
2023-05-06T13:30:48.546Z,39.63
2023-05-06T13:33:16.056Z,39.74
2023-05-06T13:35:43.523Z,40.26
2023-05-06T13:38:11.021Z,39.88
2023-05-06T13:40:38.534Z,39.74
2023-05-06T13:43:06.057Z,39.67
2023-05-06T13:45:34.252Z,38.91
2023-05-06T13:48:03.123Z,38.68
2023-05-06T13:50:30.668Z,39.70
2023-05-06T13:52:58.180Z,40.14
2023-05-06T13:55:25.880Z,39.36
2023-05-06T13:57:53.361Z,39.98
2023-05-06T14:00:21.313Z,39.47
2023-05-06T14:02:48.763Z,40.04
2023-05-06T14:05:17.757Z,40.29
2023-05-06T14:07:45.282Z,40.66
2023-05-06T14:10:12.839Z,41.12
2023-05-06T14:12:40.628Z,40.90
2023-05-06T14:15:09.093Z,40.82
2023-05-06T14:17:37.129Z,40.32
2023-05-06T14:20:06.208Z,40.54
2023-05-06T14:22:35.070Z,40.35
2023-05-06T14:25:02.557Z,40.65
2023-05-06T14:27:30.988Z,40.13
2023-05-06T14:29:58.503Z,39.58
2023-05-06T14:32:26.238Z,39.47
2023-05-06T14:34:53.734Z,39.61
2023-05-06T14:37:21.550Z,40.20
2023-05-06T14:39:50.732Z,39.88
2023-05-06T14:42:18.210Z,40.29
2023-05-06T14:44:48.728Z,39.82
2023-05-06T14:47:16.240Z,39.35
2023-05-06T14:49:44.144Z,39.57
2023-05-06T14:52:11.671Z,39.72
2023-05-06T14:54:42.105Z,39.99
2023-05-06T14:57:11.276Z,39.95
2023-05-06T14:59:39.043Z,39.86
2023-05-06T15:02:09.743Z,40.05
2023-05-06T15:04:37.508Z,41.26
2023-05-06T15:07:05.052Z,41.27
2023-05-06T15:09:32.653Z,41.23
2023-05-06T15:12:00.429Z,41.49
2023-05-06T15:14:29.236Z,41.21
2023-05-06T15:16:57.795Z,41.00
2023-05-06T15:19:25.759Z,40.83
2023-05-06T15:21:53.225Z,41.28
2023-05-06T15:24:20.720Z,42.10
2023-05-06T15:26:48.219Z,42.04
2023-05-06T15:29:15.732Z,42.87
2023-05-06T15:31:46.082Z,42.43
2023-05-06T15:34:14.346Z,42.67
2023-05-06T15:36:42.246Z,42.66
2023-05-06T15:39:09.762Z,42.55
2023-05-06T15:41:38.834Z,43.13
2023-05-06T15:44:06.685Z,43.26
2023-05-06T15:46:34.477Z,43.72
2023-05-06T15:49:32.009Z,44.22
2023-05-06T15:51:50.946Z,45.06
2023-05-06T15:54:19.157Z,45.38
2023-05-06T15:56:47.036Z,45.10
2023-05-06T15:59:14.568Z,45.25
2023-05-06T16:02:24.448Z,45.69
2023-05-06T16:04:31.290Z,45.81
2023-05-06T16:06:59.016Z,45.76
2023-05-06T16:09:27.151Z,45.93
2023-05-06T16:11:55.001Z,46.49
2023-05-06T16:14:22.694Z,46.25
2023-05-06T16:16:50.201Z,46.14
2023-05-06T16:19:17.706Z,46.38
2023-05-06T16:21:46.545Z,47.18
2023-05-06T16:24:14.087Z,47.65
2023-05-06T16:26:42.378Z,49.01
2023-05-06T16:29:10.206Z,49.13
2023-05-06T16:31:38.126Z,49.21
2023-05-06T16:34:06.326Z,49.57
2023-05-06T16:36:33.922Z,50.23
2023-05-06T16:39:03.077Z,50.21
2023-05-06T16:41:30.616Z,51.23
2023-05-06T16:43:58.457Z,52.23
2023-05-06T16:46:26.238Z,52.06
2023-05-06T16:48:53.995Z,52.08
2023-05-06T16:51:21.524Z,52.39
2023-05-06T16:53:49.000Z,52.07
2023-05-06T16:56:17.904Z,52.03
2023-05-06T16:58:45.429Z,51.69
2023-05-06T17:01:13.009Z,51.92
2023-05-06T17:03:40.868Z,52.30
2023-05-06T17:06:08.549Z,52.04
2023-05-06T17:08:37.169Z,52.12
2023-05-06T17:11:06.713Z,51.99
2023-05-06T17:13:35.802Z,52.66
2023-05-06T17:16:03.332Z,52.81
2023-05-06T17:18:30.874Z,53.04
2023-05-06T17:20:58.574Z,53.44
2023-05-06T17:23:26.226Z,53.65
2023-05-06T17:25:53.836Z,52.79
2023-05-06T17:28:21.497Z,53.60
2023-05-06T17:30:50.334Z,54.44
2023-05-06T17:33:17.959Z,55.04
2023-05-06T17:35:45.872Z,55.73
2023-05-06T17:38:13.783Z,55.62
2023-05-06T17:40:41.283Z,55.58
2023-05-06T17:43:08.769Z,55.88
2023-05-06T17:45:36.288Z,56.33
2023-05-06T17:48:05.953Z,56.87
2023-05-06T17:50:33.646Z,58.01
2023-05-06T17:53:01.161Z,57.35
2023-05-06T17:55:28.711Z,57.05
2023-05-06T17:57:56.281Z,57.11
2023-05-06T18:00:24.017Z,57.64
2023-05-06T18:02:51.565Z,57.60
2023-05-06T18:05:21.690Z,57.79
2023-05-06T18:07:49.290Z,58.07
2023-05-06T18:10:16.810Z,58.80
2023-05-06T18:12:45.291Z,59.01
2023-05-06T18:15:13.323Z,59.40
2023-05-06T18:17:41.081Z,59.99
2023-05-06T18:20:10.702Z,60.09
2023-05-06T18:22:39.944Z,60.11
2023-05-06T18:25:08.813Z,60.20
2023-05-06T18:27:36.973Z,60.24
2023-05-06T18:30:04.774Z,61.17
2023-05-06T18:32:32.504Z,61.31
2023-05-06T18:35:00.071Z,61.51
2023-05-06T18:37:28.678Z,62.02
2023-05-06T18:39:57.508Z,61.77
2023-05-06T18:42:25.002Z,62.36
2023-05-06T18:44:52.546Z,62.66
2023-05-06T18:47:20.246Z,62.56
2023-05-06T18:49:48.599Z,62.70
2023-05-06T18:52:17.654Z,63.12
2023-05-06T18:54:45.188Z,63.13
2023-05-06T18:57:14.374Z,63.55
2023-05-06T18:59:42.131Z,63.32
2023-05-06T19:02:09.610Z,63.58
2023-05-06T19:04:37.813Z,63.50
2023-05-06T19:07:05.495Z,64.03
2023-05-06T19:09:36.808Z,64.37
2023-05-06T19:12:04.726Z,64.28
2023-05-06T19:14:34.612Z,64.26
2023-05-06T19:17:03.336Z,64.74
2023-05-06T19:19:31.212Z,64.82
2023-05-06T19:22:01.642Z,65.36
2023-05-06T19:24:30.819Z,65.54
2023-05-06T19:26:58.292Z,66.53
2023-05-06T19:29:25.873Z,66.77
2023-05-06T19:31:54.948Z,66.56
2023-05-06T19:34:22.426Z,66.99
2023-05-06T19:36:49.956Z,67.14
2023-05-06T19:39:17.425Z,66.53
2023-05-06T19:41:44.989Z,66.79
2023-05-06T19:44:12.524Z,66.68
2023-05-06T19:46:40.206Z,66.79
2023-05-06T19:49:09.202Z,67.13
2023-05-06T19:51:36.675Z,67.80
2023-05-06T19:54:04.434Z,68.00
2023-05-06T19:56:31.916Z,69.00
2023-05-06T19:58:59.391Z,68.55
2023-05-06T20:01:27.157Z,68.87
2023-05-06T20:03:55.192Z,69.14
2023-05-06T20:06:24.110Z,69.11
2023-05-06T20:08:51.627Z,69.23
2023-05-06T20:11:19.118Z,69.15
2023-05-06T20:13:46.608Z,69.48
2023-05-06T20:16:14.170Z,69.13
2023-05-06T20:18:42.799Z,69.26
2023-05-06T20:21:10.288Z,69.55
2023-05-06T20:23:39.074Z,69.53
2023-05-06T20:26:06.600Z,69.56
2023-05-06T20:28:37.661Z,69.73
2023-05-06T20:31:05.337Z,69.70
2023-05-06T20:33:32.864Z,70.07
2023-05-06T20:36:00.325Z,69.93
2023-05-06T20:38:30.759Z,70.67
2023-05-06T20:41:02.657Z,70.38
2023-05-06T20:43:30.307Z,70.88
2023-05-06T20:45:57.947Z,71.43
2023-05-06T20:48:27.674Z,71.34
2023-05-06T20:50:56.993Z,71.85
2023-05-06T20:53:24.581Z,72.09
2023-05-06T20:55:52.679Z,73.04
2023-05-06T20:58:21.520Z,73.15
2023-05-06T21:00:49.986Z,73.96
2023-05-06T21:03:17.691Z,73.51
2023-05-06T21:05:45.286Z,74.52
2023-05-06T21:08:12.808Z,73.35
2023-05-06T21:10:40.503Z,73.39
2023-05-06T21:13:08.020Z,73.51
2023-05-06T21:15:37.649Z,73.09
2023-05-06T21:18:05.286Z,73.54
2023-05-06T21:20:32.903Z,73.55
2023-05-06T21:23:00.552Z,73.72
2023-05-06T21:25:28.164Z,73.97
2023-05-06T21:27:55.748Z,73.87
2023-05-06T21:30:23.336Z,73.66
2023-05-06T21:32:52.269Z,74.20
2023-05-06T21:35:19.913Z,74.18
2023-05-06T21:37:47.387Z,74.87
2023-05-06T21:40:14.970Z,74.67
2023-05-06T21:42:42.462Z,75.07
2023-05-06T21:45:11.515Z,74.71
2023-05-06T21:47:39.254Z,75.26
2023-05-06T21:50:10.526Z,75.40
2023-05-06T21:52:38.063Z,75.44
2023-05-06T21:55:06.584Z,75.36
2023-05-06T21:57:34.175Z,75.55
2023-05-06T22:00:01.717Z,76.65
2023-05-06T22:02:29.277Z,76.57
2023-05-06T22:04:56.782Z,77.00
2023-05-06T22:07:25.599Z,77.13
2023-05-06T22:09:53.100Z,76.64
2023-05-06T22:12:20.583Z,76.43
2023-05-06T22:14:48.111Z,76.20
2023-05-06T22:17:15.803Z,75.94
2023-05-06T22:19:43.320Z,76.30
2023-05-06T22:22:11.467Z,76.57
2023-05-06T22:24:40.374Z,76.56
2023-05-06T22:27:07.865Z,76.13
2023-05-06T22:29:35.978Z,76.45
2023-05-06T22:32:03.867Z,76.20
2023-05-06T22:34:31.445Z,76.13
2023-05-06T22:37:00.467Z,75.94
2023-05-06T22:39:28.552Z,76.50
2023-05-06T22:41:57.354Z,76.80
2023-05-06T22:44:24.870Z,76.71
2023-05-06T22:46:52.955Z,76.93
2023-05-06T22:49:20.425Z,76.81
2023-05-06T22:51:48.051Z,76.84
2023-05-06T22:54:15.539Z,77.04
2023-05-06T22:56:43.027Z,78.76
2023-05-06T22:59:11.837Z,77.80
2023-05-06T23:01:39.414Z,77.83
2023-05-06T23:04:07.313Z,77.69
2023-05-06T23:06:34.885Z,77.58
2023-05-06T23:09:02.386Z,78.24
2023-05-06T23:11:29.874Z,77.88
2023-05-06T23:13:57.364Z,77.73
2023-05-06T23:16:26.308Z,77.81
2023-05-06T23:18:54.855Z,77.55
2023-05-06T23:21:22.543Z,77.87
2023-05-06T23:23:50.035Z,77.74
2023-05-06T23:26:17.538Z,77.82
2023-05-06T23:28:45.029Z,77.77
2023-05-06T23:31:12.563Z,77.56
2023-05-06T23:33:41.408Z,77.81
2023-05-06T23:36:09.115Z,77.60
2023-05-06T23:38:36.614Z,77.41
2023-05-06T23:41:04.116Z,77.69
2023-05-06T23:43:31.608Z,77.94
2023-05-06T23:45:59.135Z,78.15
2023-05-06T23:48:26.644Z,77.99
2023-05-06T23:50:55.621Z,77.86
2023-05-06T23:53:23.115Z,77.88
2023-05-06T23:55:50.663Z,79.02
2023-05-06T23:58:18.172Z,78.41
